HKS628 ENBN-ENBN
Flight info
| Callsign | HKS628 |
|---|---|
| Flight time | 0h 9m |
| Altitude | 2000 |
| Route | VEGAS2B DCT OL619 DCT ARNOR RNP085 |
| Aircraft | S76/M-V/N |
Departure
| Time | 2026-05-04 12:09 |
|---|---|
| Airport | Brønnøysund Airport, Brønnøy (ENBN) |
Arrival
| Time | 2026-05-04 12:19 |
|---|---|
| Airport | Brønnøysund Airport, Brønnøy (ENBN) |
| Time | Latitude | Longitude | Altitude | Speed | Heading |
|---|---|---|---|---|---|
| 2026-05-04 11:33 | 65.70075 | 8.09386 | 925 ft | 139 kts | 86° |
| 2026-05-04 11:33 | 65.69945 | 8.11704 | 920 ft | 138 kts | 85° |
| 2026-05-04 11:33 | 65.69813 | 8.13999 | 920 ft | 137 kts | 85° |
| 2026-05-04 11:34 | 65.69681 | 8.16285 | 921 ft | 136 kts | 87° |
| 2026-05-04 11:34 | 65.69550 | 8.18549 | 920 ft | 135 kts | 87° |
| 2026-05-04 11:34 | 65.69418 | 8.20816 | 926 ft | 136 kts | 89° |
| 2026-05-04 11:34 | 65.69285 | 8.23084 | 928 ft | 136 kts | 85° |
| 2026-05-04 11:35 | 65.69152 | 8.25363 | 932 ft | 137 kts | 86° |
| 2026-05-04 11:35 | 65.69019 | 8.27638 | 924 ft | 135 kts | 85° |
| 2026-05-04 11:35 | 65.68886 | 8.29887 | 918 ft | 134 kts | 86° |
| 2026-05-04 11:35 | 65.68753 | 8.32114 | 915 ft | 133 kts | 87° |
| 2026-05-04 11:36 | 65.68620 | 8.34334 | 921 ft | 134 kts | 87° |
| 2026-05-04 11:36 | 65.68487 | 8.36581 | 926 ft | 135 kts | 86° |
| 2026-05-04 11:36 | 65.68353 | 8.38840 | 929 ft | 136 kts | 88° |
| 2026-05-04 11:36 | 65.68217 | 8.41103 | 924 ft | 135 kts | 85° |
| 2026-05-04 11:37 | 65.68080 | 8.43362 | 925 ft | 136 kts | 88° |
| 2026-05-04 11:37 | 65.67943 | 8.45635 | 933 ft | 137 kts | 86° |
| 2026-05-04 11:37 | 65.67805 | 8.47927 | 940 ft | 138 kts | 88° |
| 2026-05-04 11:37 | 65.67666 | 8.50233 | 935 ft | 139 kts | 86° |
| 2026-05-04 11:38 | 65.67526 | 8.52552 | 932 ft | 139 kts | 86° |
| 2026-05-04 11:38 | 65.67385 | 8.54876 | 929 ft | 140 kts | 86° |
| 2026-05-04 11:38 | 65.67243 | 8.57212 | 928 ft | 141 kts | 88° |
| 2026-05-04 11:38 | 65.67099 | 8.59562 | 925 ft | 140 kts | 88° |
| 2026-05-04 11:39 | 65.66958 | 8.61859 | 922 ft | 139 kts | 89° |
| 2026-05-04 11:39 | 65.66813 | 8.64181 | 926 ft | 139 kts | 86° |
| 2026-05-04 11:40 | 65.65947 | 8.78022 | 921 ft | 137 kts | 85° |
| 2026-05-04 11:41 | 65.65803 | 8.80299 | 921 ft | 136 kts | 88° |
| 2026-05-04 11:41 | 65.65660 | 8.82555 | 920 ft | 135 kts | 86° |
| 2026-05-04 11:41 | 65.65518 | 8.84792 | 919 ft | 134 kts | 88° |
| 2026-05-04 11:41 | 65.65376 | 8.87020 | 918 ft | 134 kts | 88° |
| 2026-05-04 11:42 | 65.65233 | 8.89248 | 926 ft | 134 kts | 86° |
| 2026-05-04 11:42 | 65.65090 | 8.91491 | 931 ft | 135 kts | 86° |
| 2026-05-04 11:42 | 65.64946 | 8.93746 | 931 ft | 136 kts | 85° |
| 2026-05-04 11:42 | 65.64801 | 8.96014 | 936 ft | 137 kts | 85° |
| 2026-05-04 11:43 | 65.64655 | 8.98297 | 931 ft | 137 kts | 87° |
| 2026-05-04 11:43 | 65.64508 | 9.00577 | 927 ft | 137 kts | 86° |
| 2026-05-04 11:43 | 65.64360 | 9.02858 | 926 ft | 137 kts | 88° |
| 2026-05-04 11:43 | 65.64213 | 9.05133 | 925 ft | 137 kts | 86° |
| 2026-05-04 11:44 | 65.64066 | 9.07404 | 924 ft | 137 kts | 87° |
| 2026-05-04 11:44 | 65.63919 | 9.09681 | 925 ft | 137 kts | 87° |
| 2026-05-04 11:44 | 65.63772 | 9.11955 | 926 ft | 137 kts | 87° |
| 2026-05-04 11:44 | 65.63623 | 9.14229 | 927 ft | 137 kts | 88° |
| 2026-05-04 11:45 | 65.63474 | 9.16510 | 929 ft | 137 kts | 88° |
| 2026-05-04 11:45 | 65.63324 | 9.18788 | 929 ft | 137 kts | 87° |
| 2026-05-04 11:45 | 65.63174 | 9.21075 | 929 ft | 138 kts | 88° |
| 2026-05-04 11:45 | 65.63022 | 9.23373 | 929 ft | 138 kts | 86° |
| 2026-05-04 11:46 | 65.62870 | 9.25676 | 925 ft | 139 kts | 88° |
| 2026-05-04 11:46 | 65.62717 | 9.27980 | 927 ft | 139 kts | 86° |
| 2026-05-04 11:46 | 65.62564 | 9.30275 | 923 ft | 137 kts | 87° |
| 2026-05-04 11:46 | 65.62412 | 9.32542 | 932 ft | 136 kts | 87° |
| 2026-05-04 11:47 | 65.62261 | 9.34788 | 924 ft | 134 kts | 87° |
| 2026-05-04 11:47 | 65.62114 | 9.36982 | 920 ft | 134 kts | 86° |
| 2026-05-04 11:47 | 65.61965 | 9.39200 | 922 ft | 134 kts | 86° |
| 2026-05-04 11:47 | 65.61814 | 9.41443 | 933 ft | 136 kts | 86° |
| 2026-05-04 11:48 | 65.61663 | 9.43706 | 938 ft | 137 kts | 87° |
| 2026-05-04 11:48 | 65.61510 | 9.45979 | 933 ft | 137 kts | 86° |
| 2026-05-04 11:48 | 65.61357 | 9.48248 | 924 ft | 137 kts | 88° |
| 2026-05-04 11:48 | 65.61253 | 9.49783 | 924 ft | 137 kts | 87° |
| 2026-05-04 11:49 | 65.61098 | 9.52057 | 921 ft | 136 kts | 87° |
| 2026-05-04 11:49 | 65.60944 | 9.54320 | 923 ft | 136 kts | 87° |
| 2026-05-04 11:49 | 65.60790 | 9.56587 | 921 ft | 137 kts | 88° |
| 2026-05-04 11:49 | 65.60635 | 9.58845 | 919 ft | 136 kts | 89° |
| 2026-05-04 11:50 | 65.60480 | 9.61107 | 919 ft | 137 kts | 88° |
| 2026-05-04 11:50 | 65.60324 | 9.63371 | 917 ft | 136 kts | 87° |
| 2026-05-04 11:50 | 65.60169 | 9.65624 | 918 ft | 136 kts | 89° |
| 2026-05-04 11:50 | 65.60015 | 9.67846 | 914 ft | 135 kts | 86° |
| 2026-05-04 11:51 | 65.59860 | 9.70070 | 921 ft | 134 kts | 89° |
| 2026-05-04 11:51 | 65.59705 | 9.72304 | 926 ft | 135 kts | 88° |
| 2026-05-04 11:51 | 65.59548 | 9.74555 | 930 ft | 136 kts | 88° |
| 2026-05-04 11:51 | 65.59392 | 9.76812 | 931 ft | 137 kts | 89° |
| 2026-05-04 11:52 | 65.59233 | 9.79084 | 925 ft | 137 kts | 88° |
| 2026-05-04 11:52 | 65.59074 | 9.81362 | 917 ft | 137 kts | 88° |
| 2026-05-04 11:52 | 65.58914 | 9.83635 | 917 ft | 137 kts | 89° |
| 2026-05-04 11:52 | 65.58754 | 9.85918 | 919 ft | 138 kts | 88° |
| 2026-05-04 11:53 | 65.58593 | 9.88208 | 922 ft | 139 kts | 87° |
| 2026-05-04 11:53 | 65.58430 | 9.90518 | 920 ft | 140 kts | 87° |
| 2026-05-04 11:53 | 65.58266 | 9.92833 | 920 ft | 140 kts | 87° |
| 2026-05-04 11:53 | 65.58103 | 9.95156 | 922 ft | 141 kts | 86° |
| 2026-05-04 11:55 | 65.56940 | 10.11369 | 911 ft | 138 kts | 88° |
| 2026-05-04 11:55 | 65.56774 | 10.13642 | 911 ft | 137 kts | 88° |
| 2026-05-04 11:56 | 65.56610 | 10.15911 | 916 ft | 137 kts | 89° |
| 2026-05-04 11:56 | 65.56446 | 10.18165 | 909 ft | 136 kts | 88° |
| 2026-05-04 11:56 | 65.56281 | 10.20423 | 912 ft | 137 kts | 86° |
| 2026-05-04 11:56 | 65.56119 | 10.22667 | 913 ft | 138 kts | 88° |
| 2026-05-04 11:57 | 65.55953 | 10.24942 | 912 ft | 138 kts | 89° |
| 2026-05-04 11:57 | 65.55786 | 10.27223 | 911 ft | 138 kts | 88° |
| 2026-05-04 11:57 | 65.55619 | 10.29497 | 910 ft | 138 kts | 88° |
| 2026-05-04 11:57 | 65.55452 | 10.31771 | 910 ft | 138 kts | 87° |
| 2026-05-04 11:58 | 65.55285 | 10.34049 | 911 ft | 138 kts | 88° |
| 2026-05-04 11:58 | 65.55117 | 10.36316 | 931 ft | 137 kts | 89° |
| 2026-05-04 11:58 | 65.54950 | 10.38561 | 951 ft | 136 kts | 86° |
| 2026-05-04 11:58 | 65.54784 | 10.40797 | 964 ft | 135 kts | 88° |
| 2026-05-04 11:59 | 65.54617 | 10.43035 | 974 ft | 136 kts | 86° |
| 2026-05-04 11:59 | 65.54449 | 10.45285 | 979 ft | 137 kts | 88° |
| 2026-05-04 11:59 | 65.54280 | 10.47554 | 975 ft | 138 kts | 88° |
| 2026-05-04 11:59 | 65.54110 | 10.49842 | 972 ft | 139 kts | 88° |
| 2026-05-04 12:00 | 65.53938 | 10.52136 | 972 ft | 139 kts | 89° |
| 2026-05-04 12:00 | 65.53766 | 10.54427 | 971 ft | 139 kts | 88° |
| 2026-05-04 12:00 | 65.53593 | 10.56729 | 971 ft | 140 kts | 86° |
| 2026-05-04 12:00 | 65.53419 | 10.59036 | 974 ft | 140 kts | 87° |
| 2026-05-04 12:01 | 65.53245 | 10.61342 | 973 ft | 140 kts | 86° |
| 2026-05-04 12:01 | 65.53072 | 10.63642 | 970 ft | 139 kts | 89° |
| 2026-05-04 12:02 | 65.52023 | 10.77379 | 970 ft | 138 kts | 88° |
| 2026-05-04 12:03 | 65.51847 | 10.79652 | 963 ft | 138 kts | 89° |
| 2026-05-04 12:03 | 65.51673 | 10.81917 | 955 ft | 137 kts | 89° |
| 2026-05-04 12:03 | 65.51498 | 10.84165 | 950 ft | 136 kts | 88° |
| 2026-05-04 12:03 | 65.51325 | 10.86392 | 953 ft | 135 kts | 90° |
| 2026-05-04 12:04 | 65.51153 | 10.88616 | 954 ft | 135 kts | 88° |
| 2026-05-04 12:04 | 65.50980 | 10.90837 | 956 ft | 135 kts | 90° |
| 2026-05-04 12:04 | 65.50806 | 10.93076 | 961 ft | 136 kts | 88° |
| 2026-05-04 12:04 | 65.50631 | 10.95332 | 965 ft | 137 kts | 88° |
| 2026-05-04 12:05 | 65.50456 | 10.97598 | 985 ft | 139 kts | 94° |
| 2026-05-04 12:05 | 65.50276 | 10.99894 | 975 ft | 140 kts | 95° |
| 2026-05-04 12:05 | 65.50093 | 11.02210 | 976 ft | 142 kts | 93° |
| 2026-05-04 12:05 | 65.49909 | 11.04558 | 978 ft | 143 kts | 93° |
| 2026-05-04 12:06 | 65.49724 | 11.06915 | 969 ft | 143 kts | 95° |
| 2026-05-04 12:06 | 65.49538 | 11.09268 | 968 ft | 143 kts | 94° |
| 2026-05-04 12:06 | 65.49352 | 11.11633 | 966 ft | 144 kts | 94° |
| 2026-05-04 12:06 | 65.49165 | 11.14005 | 965 ft | 144 kts | 95° |
| 2026-05-04 12:07 | 65.48977 | 11.16362 | 961 ft | 143 kts | 94° |
| 2026-05-04 12:07 | 65.48789 | 11.18717 | 958 ft | 143 kts | 94° |
| 2026-05-04 12:07 | 65.48604 | 11.21025 | 955 ft | 143 kts | 94° |
| 2026-05-04 12:07 | 65.48416 | 11.23365 | 957 ft | 142 kts | 95° |
| 2026-05-04 12:08 | 65.48229 | 11.25691 | 954 ft | 141 kts | 95° |
| 2026-05-04 12:08 | 65.48042 | 11.28009 | 955 ft | 141 kts | 93° |
| 2026-05-04 12:08 | 65.47856 | 11.30323 | 956 ft | 141 kts | 93° |
| 2026-05-04 12:08 | 65.47670 | 11.32638 | 958 ft | 141 kts | 94° |
| 2026-05-04 12:09 | 65.47481 | 11.34973 | 972 ft | 143 kts | 94° |
| 2026-05-04 12:09 | 65.47290 | 11.37337 | 977 ft | 145 kts | 94° |
| 2026-05-04 12:09 | 65.47098 | 11.39730 | 978 ft | 146 kts | 94° |
| 2026-05-04 12:09 | 65.46903 | 11.42135 | 972 ft | 146 kts | 94° |
| 2026-05-04 12:10 | 65.46708 | 11.44522 | 963 ft | 145 kts | 94° |
| 2026-05-04 12:10 | 65.46515 | 11.46895 | 953 ft | 144 kts | 94° |
| 2026-05-04 12:10 | 65.46321 | 11.49248 | 952 ft | 143 kts | 93° |
| 2026-05-04 12:10 | 65.46127 | 11.51603 | 954 ft | 143 kts | 94° |
| 2026-05-04 12:11 | 65.45935 | 11.53939 | 951 ft | 142 kts | 94° |
| 2026-05-04 12:11 | 65.45744 | 11.56252 | 949 ft | 141 kts | 94° |
| 2026-05-04 12:11 | 65.45558 | 11.58573 | 959 ft | 142 kts | 91° |
| 2026-05-04 12:11 | 65.45533 | 11.60919 | 963 ft | 140 kts | 82° |
| 2026-05-04 12:12 | 65.45545 | 11.63264 | 966 ft | 141 kts | 82° |
| 2026-05-04 12:12 | 65.45560 | 11.65629 | 968 ft | 142 kts | 81° |
| 2026-05-04 12:12 | 65.45574 | 11.67991 | 963 ft | 141 kts | 82° |
| 2026-05-04 12:12 | 65.45587 | 11.70350 | 962 ft | 141 kts | 81° |
| 2026-05-04 12:13 | 65.45599 | 11.72710 | 966 ft | 142 kts | 81° |
| 2026-05-04 12:14 | 65.45664 | 11.89900 | 953 ft | 149 kts | 88° |
| 2026-05-04 12:15 | 65.45670 | 11.92391 | 951 ft | 149 kts | 88° |
| 2026-05-04 12:15 | 65.45675 | 11.94888 | 956 ft | 150 kts | 89° |
| 2026-05-04 12:15 | 65.45681 | 11.97413 | 963 ft | 153 kts | 88° |
| 2026-05-04 12:15 | 65.45686 | 11.99967 | 966 ft | 152 kts | 88° |
| 2026-05-04 12:16 | 65.45691 | 12.02479 | 959 ft | 149 kts | 88° |
| 2026-05-04 12:16 | 65.45695 | 12.04941 | 950 ft | 146 kts | 88° |
| 2026-05-04 12:16 | 65.45584 | 12.07298 | 938 ft | 143 kts | 109° |
| 2026-05-04 12:16 | 65.45536 | 12.09631 | 953 ft | 143 kts | 70° |
| 2026-05-04 12:17 | 65.45946 | 12.11812 | 961 ft | 144 kts | 62° |
| 2026-05-04 12:17 | 65.46388 | 12.13972 | 961 ft | 144 kts | 62° |
| 2026-05-04 12:17 | 65.46838 | 12.16139 | 960 ft | 145 kts | 61° |
| 2026-05-04 12:17 | 65.47290 | 12.18307 | 956 ft | 145 kts | 61° |
| 2026-05-04 12:18 | 65.47703 | 12.20455 | 953 ft | 134 kts | 68° |
| 2026-05-04 12:18 | 65.47891 | 12.22446 | 753 ft | 109 kts | 89° |
| 2026-05-04 12:18 | 65.47591 | 12.23730 | 603 ft | 76 kts | 156° |
| 2026-05-04 12:18 | 65.47159 | 12.23720 | 413 ft | 52 kts | 207° |
| 2026-05-04 12:19 | 65.46915 | 12.23339 | 299 ft | 38 kts | 222° |
| 2026-05-04 12:19 | 65.46732 | 12.22963 | 215 ft | 32 kts | 225° |
| 2026-05-04 12:19 | 65.46531 | 12.22556 | 155 ft | 44 kts | 226° |
| 2026-05-04 12:19 | 65.46300 | 12.22130 | 70 ft | 35 kts | 226° |
| 2026-05-04 12:20 | 65.46198 | 12.21921 | 44 ft | 4 kts | 226° |
| 2026-05-04 12:20 | 65.46199 | 12.21919 | 35 ft | 1 kts | 227° |
| 2026-05-04 12:20 | 65.46193 | 12.21905 | 31 ft | 3 kts | 223° |
| 2026-05-04 12:20 | 65.46176 | 12.21871 | 31 ft | 5 kts | 228° |
| 2026-05-04 12:21 | 65.46177 | 12.21803 | 32 ft | 5 kts | 304° |
| 2026-05-04 12:21 | 65.46196 | 12.21717 | 31 ft | 6 kts | 275° |
| 2026-05-04 12:21 | 65.46191 | 12.21636 | 31 ft | 5 kts | 256° |
| 2026-05-04 12:21 | 65.46178 | 12.21536 | 30 ft | 5 kts | 253° |
| 2026-05-04 12:22 | 65.46160 | 12.21456 | 30 ft | 8 kts | 231° |
| 2026-05-04 12:22 | 65.46124 | 12.21377 | 25 ft | 5 kts | 224° |
| 2026-05-04 12:22 | 65.46107 | 12.21307 | 22 ft | 4 kts | 289° |
| 2026-05-04 12:22 | 65.46108 | 12.21270 | 22 ft | 0 kts | 216° |
| 2026-05-04 12:23 | 65.46108 | 12.21271 | 22 ft | 0 kts | 216° |
| 2026-05-04 12:25 | 65.46108 | 12.21270 | 22 ft | 0 kts | 216° |
| 2026-05-04 12:25 | 65.46108 | 12.21271 | 22 ft | 0 kts | 216° |